^^
Station Historical Data
Daily Summary for May 23, 2017 Units:  Both    English   Metric
« Previous Day
Next Day »
Daily Weekly Monthly Yearly Custom
  High: Low: Average:
Temperature: 72.0 °F /  22.2 °C 42.4 °F /  5.8 °C 56.5 °F /  13.6 °C
Dew Point: 36.9 °F /  2.7 °C 29.5 °F /  -1.4 °C 34.2 °F /  1.2 °C
Humidity: 69% 25% 46%
Wind Speed: 10.1mph /  16.3km/h - 1.3mph /  2.1km/h
Wind Gust: 14.0mph /  22.5km/h - -
Wind- - ESE
Pressure: 30.43 in /  1030.4 hPa 30.31 in /  1026.3 hPa -
Precipitation: 0.00 in /  0 mm    
Historical Graphs
 
 
Tabular Data for May 23, 2017
Time Temperature Dew Point Pressure Wind Wind Speed Wind Gust Humidity Rainfall Rate (Hourly) solar Conditions
00:03 46.0 °F /  7.8 °C 29.5 °F /  -1.4 °C 30.40in /  1029.3hPa Calm   2.0mph /  3.2km/h 52% 0.00in /  0mm 0.0 W/m2
00:10 46.0 °F /  7.8 °C 29.5 °F /  -1.4 °C 30.40in /  1029.3hPa Calm   1.0mph /  1.6km/h 52% 0.00in /  0mm 0.0 W/m2
00:16 46.2 °F /  7.9 °C 30.0 °F /  -1.1 °C 30.40in /  1029.3hPa Calm   2.0mph /  3.2km/h 53% 0.00in /  0mm 0.0 W/m2
00:22 46.2 °F /  7.9 °C 30.0 °F /  -1.1 °C 30.40in /  1029.3hPa Calm   1.0mph /  1.6km/h 53% 0.00in /  0mm 0.0 W/m2
00:28 46.2 °F /  7.9 °C 30.0 °F /  -1.1 °C 30.41in /  1029.7hPa Calm     53% 0.00in /  0mm 0.0 W/m2
00:34 46.2 °F /  7.9 °C 30.0 °F /  -1.1 °C 30.40in /  1029.3hPa Calm     53% 0.00in /  0mm 0.0 W/m2
00:40 46.0 °F /  7.8 °C 30.4 °F /  -0.9 °C 30.40in /  1029.3hPa Calm     54% 0.00in /  0mm 0.0 W/m2
00:46 45.9 °F /  7.7 °C 30.2 °F /  -1 °C 30.40in /  1029.3hPa Calm   1.0mph /  1.6km/h 54% 0.00in /  0mm 0.0 W/m2
00:53 45.9 °F /  7.7 °C 30.2 °F /  -1 °C 30.40in /  1029.3hPa Calm     54% 0.00in /  0mm 0.0 W/m2
00:59 45.7 °F /  7.6 °C 30.4 °F /  -0.9 °C 30.40in /  1029.3hPa Calm   1.0mph /  1.6km/h 55% 0.00in /  0mm 0.0 W/m2
01:05 45.5 °F /  7.5 °C 30.2 °F /  -1 °C 30.40in /  1029.3hPa East 2.0mph /  3.2km/h 2.0mph /  3.2km/h 55% 0.00in /  0mm 0.0 W/m2
01:11 45.3 °F /  7.4 °C 30.6 °F /  -0.8 °C 30.39in /  1029hPa Calm     56% 0.00in /  0mm 0.0 W/m2
01:17 45.1 °F /  7.3 °C 30.4 °F /  -0.9 °C 30.39in /  1029hPa Calm     56% 0.00in /  0mm 0.0 W/m2
01:23 45.0 °F /  7.2 °C 30.6 °F /  -0.8 °C 30.39in /  1029hPa Calm     57% 0.00in /  0mm 0.0 W/m2
01:29 45.0 °F /  7.2 °C 30.6 °F /  -0.8 °C 30.39in /  1029hPa Calm   1.0mph /  1.6km/h 57% 0.00in /  0mm 0.0 W/m2
01:36 44.8 °F /  7.1 °C 30.6 °F /  -0.8 °C 30.39in /  1029hPa Calm     57% 0.00in /  0mm 0.0 W/m2
01:42 44.8 °F /  7.1 °C 30.6 °F /  -0.8 °C 30.39in /  1029hPa Calm     57% 0.00in /  0mm 0.0 W/m2
01:48 44.8 °F /  7.1 °C 30.9 °F /  -0.6 °C 30.39in /  1029hPa Calm   2.0mph /  3.2km/h 58% 0.00in /  0mm 0.0 W/m2
01:54 44.6 °F /  7 °C 30.7 °F /  -0.7 °C 30.39in /  1029hPa Calm   1.0mph /  1.6km/h 58% 0.00in /  0mm 0.0 W/m2
02:00 44.4 °F /  6.9 °C 30.6 °F /  -0.8 °C 30.39in /  1029hPa Calm   1.0mph /  1.6km/h 58% 0.00in /  0mm 0.0 W/m2
02:06 44.4 °F /  6.9 °C 30.6 °F /  -0.8 °C 30.39in /  1029hPa Calm   1.0mph /  1.6km/h 58% 0.00in /  0mm 0.0 W/m2
02:12 44.4 °F /  6.9 °C 30.9 °F /  -0.6 °C 30.38in /  1028.7hPa East 0.9mph /  1.4km/h 4.0mph /  6.4km/h 59% 0.00in /  0mm 0.0 W/m2
02:19 44.4 °F /  6.9 °C 30.9 °F /  -0.6 °C 30.38in /  1028.7hPa Calm   2.0mph /  3.2km/h 59% 0.00in /  0mm 0.0 W/m2
02:25 44.4 °F /  6.9 °C 30.9 °F /  -0.6 °C 30.38in /  1028.7hPa East 2.9mph /  4.7km/h 3.0mph /  4.8km/h 59% 0.00in /  0mm 0.0 W/m2
02:31 44.4 °F /  6.9 °C 30.9 °F /  -0.6 °C 30.38in /  1028.7hPa East 0.9mph /  1.4km/h 3.0mph /  4.8km/h 59% 0.00in /  0mm 0.0 W/m2
02:37 44.4 °F /  6.9 °C 30.9 °F /  -0.6 °C 30.38in /  1028.7hPa Calm   2.0mph /  3.2km/h 59% 0.00in /  0mm 0.0 W/m2
02:43 44.4 °F /  6.9 °C 30.9 °F /  -0.6 °C 30.38in /  1028.7hPa ESE 2.9mph /  4.7km/h 5.0mph /  8km/h 59% 0.00in /  0mm 0.0 W/m2
02:49 44.4 °F /  6.9 °C 30.9 °F /  -0.6 °C 30.38in /  1028.7hPa Calm   4.0mph /  6.4km/h 59% 0.00in /  0mm 0.0 W/m2
02:55 44.2 °F /  6.8 °C 30.7 °F /  -0.7 °C 30.37in /  1028.3hPa East 2.9mph /  4.7km/h 4.0mph /  6.4km/h 59% 0.00in /  0mm 0.0 W/m2
03:01 44.1 °F /  6.7 °C 31.1 °F /  -0.5 °C 30.37in /  1028.3hPa East 0.9mph /  1.4km/h 1.0mph /  1.6km/h 60% 0.00in /  0mm 0.0 W/m2
03:07 44.1 °F /  6.7 °C 31.5 °F /  -0.3 °C 30.37in /  1028.3hPa Calm   3.0mph /  4.8km/h 61% 0.00in /  0mm 0.0 W/m2
03:13 43.9 °F /  6.6 °C 31.3 °F /  -0.4 °C 30.37in /  1028.3hPa SSE 0.9mph /  1.4km/h 5.0mph /  8km/h 61% 0.00in /  0mm 0.0 W/m2
03:19 43.9 °F /  6.6 °C 31.3 °F /  -0.4 °C 30.37in /  1028.3hPa Calm   4.0mph /  6.4km/h 61% 0.00in /  0mm 0.0 W/m2
03:25 43.5 °F /  6.4 °C 31.3 °F /  -0.4 °C 30.37in /  1028.3hPa Calm   1.0mph /  1.6km/h 62% 0.00in /  0mm 0.0 W/m2
03:31 43.5 °F /  6.4 °C 31.3 °F /  -0.4 °C 30.37in /  1028.3hPa Calm   5.0mph /  8km/h 62% 0.00in /  0mm 0.0 W/m2
03:38 43.3 °F /  6.3 °C 31.6 °F /  -0.2 °C 30.37in /  1028.3hPa ESE 0.9mph /  1.4km/h 4.0mph /  6.4km/h 63% 0.00in /  0mm 0.0 W/m2
03:44 43.2 °F /  6.2 °C 31.5 °F /  -0.3 °C 30.37in /  1028.3hPa Calm   1.0mph /  1.6km/h 63% 0.00in /  0mm 0.0 W/m2
03:50 43.2 °F /  6.2 °C 31.8 °F /  -0.1 °C 30.37in /  1028.3hPa Calm   1.0mph /  1.6km/h 64% 0.00in /  0mm 0.0 W/m2
03:56 43.2 °F /  6.2 °C 31.8 °F /  -0.1 °C 30.37in /  1028.3hPa East 0.9mph /  1.4km/h 1.0mph /  1.6km/h 64% 0.00in /  0mm 0.0 W/m2
04:02 43.2 °F /  6.2 °C 31.8 °F /  -0.1 °C 30.37in /  1028.3hPa Calm   1.0mph /  1.6km/h 64% 0.00in /  0mm 0.0 W/m2
04:08 43.2 °F /  6.2 °C 32.2 °F /  0.1 °C 30.37in /  1028.3hPa Calm   2.0mph /  3.2km/h 65% 0.00in /  0mm 0.0 W/m2
04:15 43.2 °F /  6.2 °C 32.2 °F /  0.1 °C 30.37in /  1028.3hPa Calm   1.0mph /  1.6km/h 65% 0.00in /  0mm 0.0 W/m2
04:20 43.2 °F /  6.2 °C 32.2 °F /  0.1 °C 30.37in /  1028.3hPa ESE 2.0mph /  3.2km/h 2.0mph /  3.2km/h 65% 0.00in /  0mm 0.0 W/m2
04:27 43.0 °F /  6.1 °C 32.0 °F /  0 °C 30.37in /  1028.3hPa Calm   2.0mph /  3.2km/h 65% 0.00in /  0mm 0.0 W/m2
04:33 43.0 °F /  6.1 °C 32.0 °F /  0 °C 30.37in /  1028.3hPa Calm   4.0mph /  6.4km/h 65% 0.00in /  0mm 0.0 W/m2
04:39 43.2 °F /  6.2 °C 32.2 °F /  0.1 °C 30.37in /  1028.3hPa Calm   2.0mph /  3.2km/h 65% 0.00in /  0mm 0.0 W/m2
04:45 43.2 °F /  6.2 °C 32.2 °F /  0.1 °C 30.37in /  1028.3hPa ESE 2.9mph /  4.7km/h 3.0mph /  4.8km/h 65% 0.00in /  0mm 0.0 W/m2
04:51 43.3 °F /  6.3 °C 32.4 °F /  0.2 °C 30.37in /  1028.3hPa Calm   2.0mph /  3.2km/h 65% 0.00in /  0mm 0.0 W/m2
04:57 43.3 °F /  6.3 °C 32.4 °F /  0.2 °C 30.38in /  1028.7hPa ESE 2.0mph /  3.2km/h 2.0mph /  3.2km/h 65% 0.00in /  0mm 0.0 W/m2
05:03 43.3 °F /  6.3 °C 32.4 °F /  0.2 °C 30.38in /  1028.7hPa Calm   2.0mph /  3.2km/h 65% 0.00in /  0mm 0.0 W/m2
05:09 43.3 °F /  6.3 °C 32.4 °F /  0.2 °C 30.38in /  1028.7hPa Calm   2.0mph /  3.2km/h 65% 0.00in /  0mm 0.0 W/m2
05:16 43.2 °F /  6.2 °C 32.5 °F /  0.3 °C 30.38in /  1028.7hPa Calm   2.0mph /  3.2km/h 66% 0.00in /  0mm 0.0 W/m2
05:22 43.2 °F /  6.2 °C 32.5 °F /  0.3 °C 30.38in /  1028.7hPa Calm   4.0mph /  6.4km/h 66% 0.00in /  0mm 0.0 W/m2
05:28 43.2 °F /  6.2 °C 32.5 °F /  0.3 °C 30.39in /  1029hPa ENE 0.9mph /  1.4km/h 2.0mph /  3.2km/h 66% 0.00in /  0mm 0.0 W/m2
05:34 43.2 °F /  6.2 °C 32.5 °F /  0.3 °C 30.39in /  1029hPa Calm   2.0mph /  3.2km/h 66% 0.00in /  0mm 0.0 W/m2
05:40 43.0 °F /  6.1 °C 32.4 °F /  0.2 °C 30.39in /  1029hPa Calm   3.0mph /  4.8km/h 66% 0.00in /  0mm 0.0 W/m2
05:46 42.8 °F /  6 °C 32.5 °F /  0.3 °C 30.39in /  1029hPa Calm   2.0mph /  3.2km/h 67% 0.00in /  0mm 0.0 W/m2
05:52 42.6 °F /  5.9 °C 32.4 °F /  0.2 °C 30.39in /  1029hPa Calm   2.0mph /  3.2km/h 67% 0.00in /  0mm 0.0 W/m2
05:59 42.6 °F /  5.9 °C 32.7 °F /  0.4 °C 30.39in /  1029hPa East 0.9mph /  1.4km/h 2.0mph /  3.2km/h 68% 0.00in /  0mm 0.0 W/m2
06:05 42.4 °F /  5.8 °C 32.7 °F /  0.4 °C 30.40in /  1029.3hPa East 2.0mph /  3.2km/h 3.0mph /  4.8km/h 68% 0.00in /  0mm 0.0 W/m2
06:11 42.4 °F /  5.8 °C 32.7 °F /  0.4 °C 30.40in /  1029.3hPa Calm   4.0mph /  6.4km/h 68% 0.00in /  0mm 0.0 W/m2
06:17 42.4 °F /  5.8 °C 32.7 °F /  0.4 °C 30.40in /  1029.3hPa Calm   4.0mph /  6.4km/h 68% 0.00in /  0mm 0.0 W/m2
06:23 42.4 °F /  5.8 °C 32.7 °F /  0.4 °C 30.40in /  1029.3hPa East 0.9mph /  1.4km/h 3.0mph /  4.8km/h 68% 0.00in /  0mm 5.0 W/m2
06:29 42.4 °F /  5.8 °C 33.1 °F /  0.6 °C 30.40in /  1029.3hPa Calm   4.0mph /  6.4km/h 69% 0.00in /  0mm 7.0 W/m2
06:35 42.4 °F /  5.8 °C 33.1 °F /  0.6 °C 30.40in /  1029.3hPa East 0.9mph /  1.4km/h 3.0mph /  4.8km/h 69% 0.00in /  0mm 9.0 W/m2
06:42 42.4 °F /  5.8 °C 33.1 °F /  0.6 °C 30.41in /  1029.7hPa Calm   2.0mph /  3.2km/h 69% 0.00in /  0mm 11.0 W/m2
06:48 42.6 °F /  5.9 °C 33.1 °F /  0.6 °C 30.41in /  1029.7hPa Calm   1.0mph /  1.6km/h 69% 0.00in /  0mm 12.0 W/m2
06:54 42.8 °F /  6 °C 33.3 °F /  0.7 °C 30.41in /  1029.7hPa East 0.9mph /  1.4km/h 2.0mph /  3.2km/h 69% 0.00in /  0mm 14.0 W/m2
07:00 43.0 °F /  6.1 °C 33.4 °F /  0.8 °C 30.41in /  1029.7hPa Calm   2.0mph /  3.2km/h 69% 0.00in /  0mm 14.0 W/m2
07:06 43.2 °F /  6.2 °C 33.6 °F /  0.9 °C 30.41in /  1029.7hPa Calm   1.0mph /  1.6km/h 69% 0.00in /  0mm 16.0 W/m2
07:12 43.5 °F /  6.4 °C 34.0 °F /  1.1 °C 30.41in /  1029.7hPa Calm   3.0mph /  4.8km/h 69% 0.00in /  0mm 18.0 W/m2
07:19 44.2 °F /  6.8 °C 34.3 °F /  1.3 °C 30.42in /  1030hPa Calm   2.0mph /  3.2km/h 68% 0.00in /  0mm 19.0 W/m2
07:25 45.0 °F /  7.2 °C 34.7 °F /  1.5 °C 30.42in /  1030hPa Calm   4.0mph /  6.4km/h 67% 0.00in /  0mm 21.0 W/m2
07:31 45.9 °F /  7.7 °C 35.1 °F /  1.7 °C 30.42in /  1030hPa Calm   5.0mph /  8km/h 66% 0.00in /  0mm 21.0 W/m2
07:37 47.3 °F /  8.5 °C 35.4 °F /  1.9 °C 30.42in /  1030hPa ESE 0.9mph /  1.4km/h 5.0mph /  8km/h 63% 0.00in /  0mm 23.0 W/m2
07:43 48.7 °F /  9.3 °C 35.4 °F /  1.9 °C 30.42in /  1030hPa NE 0.9mph /  1.4km/h 3.0mph /  4.8km/h 60% 0.00in /  0mm 23.0 W/m2
07:49 50.2 °F /  10.1 °C 36.0 °F /  2.2 °C 30.42in /  1030hPa Calm   3.0mph /  4.8km/h 58% 0.00in /  0mm 25.0 W/m2
07:55 51.1 °F /  10.6 °C 36.3 °F /  2.4 °C 30.42in /  1030hPa Calm   2.0mph /  3.2km/h 57% 0.00in /  0mm 26.0 W/m2
08:02 52.5 °F /  11.4 °C 36.9 °F /  2.7 °C 30.42in /  1030hPa Calm   1.0mph /  1.6km/h 55% 0.00in /  0mm 32.0 W/m2
08:08 54.7 °F /  12.6 °C 36.9 °F /  2.7 °C 30.42in /  1030hPa Calm   6.0mph /  9.7km/h 51% 0.00in /  0mm 339.0 W/m2
08:14 56.8 °F /  13.8 °C 36.9 °F /  2.7 °C 30.42in /  1030hPa ENE 2.9mph /  4.7km/h 7.0mph /  11.3km/h 47% 0.00in /  0mm 369.0 W/m2
08:20 58.5 °F /  14.7 °C 36.7 °F /  2.6 °C 30.43in /  1030.4hPa Calm   5.0mph /  8km/h 44% 0.00in /  0mm 392.0 W/m2
08:26 60.1 °F /  15.6 °C 36.9 °F /  2.7 °C 30.42in /  1030hPa Calm   6.0mph /  9.7km/h 42% 0.00in /  0mm 413.0 W/m2
08:32 61.2 °F /  16.2 °C 36.7 °F /  2.6 °C 30.43in /  1030.4hPa Calm   8.0mph /  12.9km/h 40% 0.00in /  0mm 431.0 W/m2
08:38 61.9 °F /  16.6 °C 36.7 °F /  2.6 °C 30.43in /  1030.4hPa NNE 0.9mph /  1.4km/h 6.0mph /  9.7km/h 39% 0.00in /  0mm 450.0 W/m2
08:45 62.4 °F /  16.9 °C 36.5 °F /  2.5 °C 30.43in /  1030.4hPa ESE 2.0mph /  3.2km/h 7.0mph /  11.3km/h 38% 0.00in /  0mm 469.0 W/m2
08:51 63.0 °F /  17.2 °C 36.3 °F /  2.4 °C 30.43in /  1030.4hPa NNE 0.9mph /  1.4km/h 7.0mph /  11.3km/h 37% 0.00in /  0mm 489.0 W/m2
08:57 63.1 °F /  17.3 °C 35.1 °F /  1.7 °C 30.43in /  1030.4hPa NNE 2.9mph /  4.7km/h 9.0mph /  14.5km/h 35% 0.00in /  0mm 506.0 W/m2
09:03 63.3 °F /  17.4 °C 35.2 °F /  1.8 °C 30.43in /  1030.4hPa NNE 2.0mph /  3.2km/h 12.0mph /  19.3km/h 35% 0.00in /  0mm 522.0 W/m2
09:09 63.7 °F /  17.6 °C 35.6 °F /  2 °C 30.43in /  1030.4hPa North 4.9mph /  7.9km/h 11.0mph /  17.7km/h 35% 0.00in /  0mm 538.0 W/m2
09:15 63.5 °F /  17.5 °C 35.4 °F /  1.9 °C 30.43in /  1030.4hPa NNW 2.9mph /  4.7km/h 14.0mph /  22.5km/h 35% 0.00in /  0mm 552.0 W/m2
09:21 63.9 °F /  17.7 °C 35.6 °F /  2 °C 30.43in /  1030.4hPa North 0.9mph /  1.4km/h 8.0mph /  12.9km/h 35% 0.00in /  0mm 568.0 W/m2
09:27 64.4 °F /  18 °C 36.1 °F /  2.3 °C 30.43in /  1030.4hPa NNE 6.9mph /  11.1km/h 10.0mph /  16.1km/h 35% 0.00in /  0mm 584.0 W/m2
09:33 64.8 °F /  18.2 °C 35.8 °F /  2.1 °C 30.43in /  1030.4hPa NNW 2.9mph /  4.7km/h 11.0mph /  17.7km/h 34% 0.00in /  0mm 596.0 W/m2
09:40 65.1 °F /  18.4 °C 35.2 °F /  1.8 °C 30.43in /  1030.4hPa North 4.0mph /  6.4km/h 7.0mph /  11.3km/h 33% 0.00in /  0mm 612.0 W/m2
09:46 65.1 °F /  18.4 °C 35.2 °F /  1.8 °C 30.43in /  1030.4hPa North 0.9mph /  1.4km/h 11.0mph /  17.7km/h 33% 0.00in /  0mm 626.0 W/m2
09:52 65.1 °F /  18.4 °C 35.2 °F /  1.8 °C 30.43in /  1030.4hPa NNW 6.9mph /  11.1km/h 12.0mph /  19.3km/h 33% 0.00in /  0mm 633.0 W/m2
09:58 65.5 °F /  18.6 °C 35.6 °F /  2 °C 30.42in /  1030hPa NW 4.0mph /  6.4km/h 8.0mph /  12.9km/h 33% 0.00in /  0mm 645.0 W/m2
10:04 65.7 °F /  18.7 °C 36.5 °F /  2.5 °C 30.42in /  1030hPa Calm   5.0mph /  8km/h 34% 0.00in /  0mm 652.0 W/m2
10:10 66.4 °F /  19.1 °C 34.9 °F /  1.6 °C 30.42in /  1030hPa NNE 2.9mph /  4.7km/h 8.0mph /  12.9km/h 31% 0.00in /  0mm 666.0 W/m2
10:16 66.6 °F /  19.2 °C 35.8 °F /  2.1 °C 30.42in /  1030hPa ENE 8.9mph /  14.3km/h 12.0mph /  19.3km/h 32% 0.00in /  0mm 675.0 W/m2
10:22 66.9 °F /  19.4 °C 36.1 °F /  2.3 °C 30.42in /  1030hPa NNW 2.0mph /  3.2km/h 10.0mph /  16.1km/h 32% 0.00in /  0mm 682.0 W/m2
10:28 67.3 °F /  19.6 °C 35.6 °F /  2 °C 30.42in /  1030hPa NE 2.0mph /  3.2km/h 7.0mph /  11.3km/h 31% 0.00in /  0mm 693.0 W/m2
10:34 67.6 °F /  19.8 °C 36.0 °F /  2.2 °C 30.41in /  1029.7hPa NNE 2.0mph /  3.2km/h 5.0mph /  8km/h 31% 0.00in /  0mm 698.0 W/m2
10:40 67.8 °F /  19.9 °C 35.2 °F /  1.8 °C 30.41in /  1029.7hPa NNW 4.0mph /  6.4km/h 8.0mph /  12.9km/h 30% 0.00in /  0mm 705.0 W/m2
10:46 67.8 °F /  19.9 °C 36.1 °F /  2.3 °C 30.41in /  1029.7hPa NNW 6.0mph /  9.7km/h 7.0mph /  11.3km/h 31% 0.00in /  0mm 710.0 W/m2
10:52 67.8 °F /  19.9 °C 36.1 °F /  2.3 °C 30.40in /  1029.3hPa North 4.9mph /  7.9km/h 13.0mph /  20.9km/h 31% 0.00in /  0mm 717.0 W/m2
10:58 67.8 °F /  19.9 °C 36.1 °F /  2.3 °C 30.40in /  1029.3hPa ENE 4.0mph /  6.4km/h 7.0mph /  11.3km/h 31% 0.00in /  0mm 721.0 W/m2
11:04 68.4 °F /  20.2 °C 36.5 °F /  2.5 °C 30.40in /  1029.3hPa North 2.9mph /  4.7km/h 6.0mph /  9.7km/h 31% 0.00in /  0mm 724.0 W/m2
11:10 68.7 °F /  20.4 °C 36.9 °F /  2.7 °C 30.40in /  1029.3hPa North 2.9mph /  4.7km/h 10.0mph /  16.1km/h 31% 0.00in /  0mm 728.0 W/m2
11:16 68.9 °F /  20.5 °C 36.1 °F /  2.3 °C 30.39in /  1029hPa NNE 4.0mph /  6.4km/h 11.0mph /  17.7km/h 30% 0.00in /  0mm 733.0 W/m2
11:22 69.1 °F /  20.6 °C 36.3 °F /  2.4 °C 30.39in /  1029hPa ENE 0.9mph /  1.4km/h 7.0mph /  11.3km/h 30% 0.00in /  0mm 737.0 W/m2
11:28 69.4 °F /  20.8 °C 35.8 °F /  2.1 °C 30.39in /  1029hPa NE 6.0mph /  9.7km/h 13.0mph /  20.9km/h 29% 0.00in /  0mm 744.0 W/m2
11:34 69.4 °F /  20.8 °C 34.9 °F /  1.6 °C 30.38in /  1028.7hPa NE 8.1mph /  13km/h 9.0mph /  14.5km/h 28% 0.00in /  0mm 738.0 W/m2
11:40 69.6 °F /  20.9 °C 35.1 °F /  1.7 °C 30.38in /  1028.7hPa NE 8.1mph /  13km/h 9.0mph /  14.5km/h 28% 0.00in /  0mm 737.0 W/m2
11:46 70.0 °F /  21.1 °C 35.4 °F /  1.9 °C 30.37in /  1028.3hPa NNE 4.9mph /  7.9km/h 11.0mph /  17.7km/h 28% 0.00in /  0mm 738.0 W/m2
11:52 70.2 °F /  21.2 °C 34.7 °F /  1.5 °C 30.37in /  1028.3hPa Calm   7.0mph /  11.3km/h 27% 0.00in /  0mm 740.0 W/m2
11:58 70.3 °F /  21.3 °C 34.7 °F /  1.5 °C 30.37in /  1028.3hPa NNE 4.0mph /  6.4km/h 7.0mph /  11.3km/h 27% 0.00in /  0mm 737.0 W/m2
12:04 70.3 °F /  21.3 °C 34.7 °F /  1.5 °C 30.37in /  1028.3hPa NNW 6.0mph /  9.7km/h 11.0mph /  17.7km/h 27% 0.00in /  0mm 738.0 W/m2
12:10 70.3 °F /  21.3 °C 35.6 °F /  2 °C 30.37in /  1028.3hPa NNE 2.0mph /  3.2km/h 5.0mph /  8km/h 28% 0.00in /  0mm 733.0 W/m2
12:16 70.3 °F /  21.3 °C 33.8 °F /  1 °C 30.37in /  1028.3hPa NE 2.9mph /  4.7km/h 9.0mph /  14.5km/h 26% 0.00in /  0mm 733.0 W/m2
12:22 70.5 °F /  21.4 °C 34.9 °F /  1.6 °C 30.36in /  1028hPa Calm   2.0mph /  3.2km/h 27% 0.00in /  0mm 726.0 W/m2
12:28 71.1 °F /  21.7 °C 35.4 °F /  1.9 °C 30.36in /  1028hPa NW 4.0mph /  6.4km/h 7.0mph /  11.3km/h 27% 0.00in /  0mm 724.0 W/m2
12:34 71.2 °F /  21.8 °C 34.5 °F /  1.4 °C 30.36in /  1028hPa East 2.9mph /  4.7km/h 6.0mph /  9.7km/h 26% 0.00in /  0mm 717.0 W/m2
12:40 71.2 °F /  21.8 °C 34.5 °F /  1.4 °C 30.36in /  1028hPa North 2.0mph /  3.2km/h 4.0mph /  6.4km/h 26% 0.00in /  0mm 708.0 W/m2
12:47 71.2 °F /  21.8 °C 35.6 °F /  2 °C 30.35in /  1027.7hPa Calm   5.0mph /  8km/h 27% 0.00in /  0mm 701.0 W/m2
12:53 71.4 °F /  21.9 °C 35.8 °F /  2.1 °C 30.35in /  1027.7hPa North 10.1mph /  16.3km/h 14.0mph /  22.5km/h 27% 0.00in /  0mm 694.0 W/m2
12:58 71.4 °F /  21.9 °C 36.7 °F /  2.6 °C 30.34in /  1027.3hPa SSE 2.9mph /  4.7km/h 3.0mph /  4.8km/h 28% 0.00in /  0mm 687.0 W/m2
13:04 71.4 °F /  21.9 °C 35.8 °F /  2.1 °C 30.34in /  1027.3hPa Calm   8.0mph /  12.9km/h 27% 0.00in /  0mm 679.0 W/m2
13:10 71.4 °F /  21.9 °C 33.8 °F /  1 °C 30.34in /  1027.3hPa NNE 6.9mph /  11.1km/h 7.0mph /  11.3km/h 25% 0.00in /  0mm 670.0 W/m2
13:17 71.6 °F /  22 °C 34.9 °F /  1.6 °C 30.34in /  1027.3hPa NNE 4.9mph /  7.9km/h 11.0mph /  17.7km/h 26% 0.00in /  0mm 659.0 W/m2
13:23 71.4 °F /  21.9 °C 35.8 °F /  2.1 °C 30.34in /  1027.3hPa Calm   6.0mph /  9.7km/h 27% 0.00in /  0mm 649.0 W/m2
13:29 71.8 °F /  22.1 °C 36.0 °F /  2.2 °C 30.33in /  1027hPa NW 6.9mph /  11.1km/h 7.0mph /  11.3km/h 27% 0.00in /  0mm 636.0 W/m2
13:35 72.0 °F /  22.2 °C 35.2 °F /  1.8 °C 30.33in /  1027hPa SSE 2.0mph /  3.2km/h 6.0mph /  9.7km/h 26% 0.00in /  0mm 628.0 W/m2
13:41 72.0 °F /  22.2 °C 35.2 °F /  1.8 °C 30.33in /  1027hPa NW 2.0mph /  3.2km/h 9.0mph /  14.5km/h 26% 0.00in /  0mm 615.0 W/m2
13:47 72.0 °F /  22.2 °C 36.1 °F /  2.3 °C 30.33in /  1027hPa ESE 2.0mph /  3.2km/h 9.0mph /  14.5km/h 27% 0.00in /  0mm 601.0 W/m2
13:53 71.8 °F /  22.1 °C 35.1 °F /  1.7 °C 30.32in /  1026.6hPa NNE 4.0mph /  6.4km/h 8.0mph /  12.9km/h 26% 0.00in /  0mm 591.0 W/m2
13:59 71.8 °F /  22.1 °C 35.1 °F /  1.7 °C 30.32in /  1026.6hPa NE 4.9mph /  7.9km/h 7.0mph /  11.3km/h 26% 0.00in /  0mm 578.0 W/m2
14:05 71.6 °F /  22 °C 35.8 °F /  2.1 °C 30.32in /  1026.6hPa ENE 2.9mph /  4.7km/h 7.0mph /  11.3km/h 27% 0.00in /  0mm 561.0 W/m2
14:11 71.6 °F /  22 °C 35.8 °F /  2.1 °C 30.32in /  1026.6hPa North 0.9mph /  1.4km/h 3.0mph /  4.8km/h 27% 0.00in /  0mm 548.0 W/m2
14:17 71.8 °F /  22.1 °C 35.1 °F /  1.7 °C 30.32in /  1026.6hPa NNE 8.1mph /  13km/h 11.0mph /  17.7km/h 26% 0.00in /  0mm 534.0 W/m2
14:23 71.4 °F /  21.9 °C 34.7 °F /  1.5 °C 30.32in /  1026.6hPa NE 2.9mph /  4.7km/h 3.0mph /  4.8km/h 26% 0.00in /  0mm 519.0 W/m2
14:29 71.6 °F /  22 °C 36.7 °F /  2.6 °C 30.31in /  1026.3hPa Calm   3.0mph /  4.8km/h 28% 0.00in /  0mm 503.0 W/m2
14:35 71.4 °F /  21.9 °C 35.8 °F /  2.1 °C 30.31in /  1026.3hPa East 6.0mph /  9.7km/h 8.0mph /  12.9km/h 27% 0.00in /  0mm 485.0 W/m2
14:41 71.4 °F /  21.9 °C 35.8 °F /  2.1 °C 30.32in /  1026.6hPa NNW 2.9mph /  4.7km/h 5.0mph /  8km/h 27% 0.00in /  0mm 468.0 W/m2
14:47 71.8 °F /  22.1 °C 36.0 °F /  2.2 °C 30.32in /  1026.6hPa Calm   1.0mph /  1.6km/h 27% 0.00in /  0mm 448.0 W/m2
14:53 71.8 °F /  22.1 °C 36.0 °F /  2.2 °C 30.31in /  1026.3hPa NNE 6.0mph /  9.7km/h 7.0mph /  11.3km/h 27% 0.00in /  0mm 434.0 W/m2
14:59 71.4 °F /  21.9 °C 35.8 °F /  2.1 °C 30.31in /  1026.3hPa NNE 6.0mph /  9.7km/h 8.0mph /  12.9km/h 27% 0.00in /  0mm 413.0 W/m2
15:05 71.4 °F /  21.9 °C 35.8 °F /  2.1 °C 30.31in /  1026.3hPa East 0.9mph /  1.4km/h 7.0mph /  11.3km/h 27% 0.00in /  0mm 399.0 W/m2
15:11 71.2 °F /  21.8 °C 34.5 °F /  1.4 °C 30.31in /  1026.3hPa NNW 4.0mph /  6.4km/h 9.0mph /  14.5km/h 26% 0.00in /  0mm 381.0 W/m2
15:17 71.1 °F /  21.7 °C 35.4 °F /  1.9 °C 30.31in /  1026.3hPa North 2.0mph /  3.2km/h 9.0mph /  14.5km/h 27% 0.00in /  0mm 357.0 W/m2
15:23 70.9 °F /  21.6 °C 36.1 °F /  2.3 °C 30.31in /  1026.3hPa Calm   1.0mph /  1.6km/h 28% 0.00in /  0mm 336.0 W/m2
15:29 70.5 °F /  21.4 °C 34.9 °F /  1.6 °C 30.31in /  1026.3hPa NNW 2.9mph /  4.7km/h 10.0mph /  16.1km/h 27% 0.00in /  0mm 47.0 W/m2
15:35 70.3 °F /  21.3 °C 33.8 °F /  1 °C 30.31in /  1026.3hPa North 2.9mph /  4.7km/h 6.0mph /  9.7km/h 26% 0.00in /  0mm 40.0 W/m2
15:41 70.2 °F /  21.2 °C 33.6 °F /  0.9 °C 30.31in /  1026.3hPa North 2.0mph /  3.2km/h 9.0mph /  14.5km/h 26% 0.00in /  0mm 39.0 W/m2
15:47 70.0 °F /  21.1 °C 33.4 °F /  0.8 °C 30.32in /  1026.6hPa Calm   7.0mph /  11.3km/h 26% 0.00in /  0mm 35.0 W/m2
15:53 69.6 °F /  20.9 °C 34.2 °F /  1.2 °C 30.32in /  1026.6hPa NNE 0.9mph /  1.4km/h 3.0mph /  4.8km/h 27% 0.00in /  0mm 33.0 W/m2
15:59 69.4 °F /  20.8 °C 34.9 °F /  1.6 °C 30.32in /  1026.6hPa North 2.9mph /  4.7km/h 6.0mph /  9.7km/h 28% 0.00in /  0mm 30.0 W/m2
16:05 69.1 °F /  20.6 °C 34.5 °F /  1.4 °C 30.32in /  1026.6hPa NNE 0.9mph /  1.4km/h 3.0mph /  4.8km/h 28% 0.00in /  0mm 25.0 W/m2
16:11 68.7 °F /  20.4 °C 35.2 °F /  1.8 °C 30.32in /  1026.6hPa North 2.9mph /  4.7km/h 7.0mph /  11.3km/h 29% 0.00in /  0mm 23.0 W/m2
16:17 68.5 °F /  20.3 °C 34.2 °F /  1.2 °C 30.32in /  1026.6hPa NE 2.0mph /  3.2km/h 4.0mph /  6.4km/h 28% 0.00in /  0mm 21.0 W/m2
16:23 68.4 °F /  20.2 °C 34.9 °F /  1.6 °C 30.32in /  1026.6hPa North 2.9mph /  4.7km/h 6.0mph /  9.7km/h 29% 0.00in /  0mm 19.0 W/m2
16:29 68.2 °F /  20.1 °C 34.7 °F /  1.5 °C 30.32in /  1026.6hPa NNE 6.0mph /  9.7km/h 7.0mph /  11.3km/h 29% 0.00in /  0mm 18.0 W/m2
16:31 68.0 °F /  20 °C 34.5 °F /  1.4 °C 30.32in /  1026.6hPa NNE 2.0mph /  3.2km/h 7.0mph /  11.3km/h 29% 0.00in /  0mm 18.0 W/m2
16:37 67.8 °F /  19.9 °C 34.3 °F /  1.3 °C 30.32in /  1026.6hPa NNW 4.9mph /  7.9km/h 7.0mph /  11.3km/h 29% 0.00in /  0mm 18.0 W/m2
16:43 67.6 °F /  19.8 °C 34.2 °F /  1.2 °C 30.32in /  1026.6hPa NNE 0.9mph /  1.4km/h 8.0mph /  12.9km/h 29% 0.00in /  0mm 16.0 W/m2
16:51 67.3 °F /  19.6 °C 34.7 °F /  1.5 °C 30.33in /  1027hPa North 4.0mph /  6.4km/h 5.0mph /  8km/h 30% 0.00in /  0mm 14.0 W/m2
16:57 66.9 °F /  19.4 °C 35.2 °F /  1.8 °C 30.33in /  1027hPa Calm   6.0mph /  9.7km/h 31% 0.00in /  0mm 12.0 W/m2
17:03 66.6 °F /  19.2 °C 35.1 °F /  1.7 °C 30.33in /  1027hPa NE 2.0mph /  3.2km/h 2.0mph /  3.2km/h 31% 0.00in /  0mm 9.0 W/m2
17:09 66.4 °F /  19.1 °C 34.9 °F /  1.6 °C 30.34in /  1027.3hPa Calm   2.0mph /  3.2km/h 31% 0.00in /  0mm 7.0 W/m2
17:15 65.8 °F /  18.8 °C 35.2 °F /  1.8 °C 30.34in /  1027.3hPa NE 2.0mph /  3.2km/h 4.0mph /  6.4km/h 32% 0.00in /  0mm 0.0 W/m2
17:21 65.5 °F /  18.6 °C 35.6 °F /  2 °C 30.34in /  1027.3hPa Calm     33% 0.00in /  0mm 0.0 W/m2
17:27 64.9 °F /  18.3 °C 35.1 °F /  1.7 °C 30.34in /  1027.3hPa Calm   1.0mph /  1.6km/h 33% 0.00in /  0mm 0.0 W/m2
17:33 64.2 °F /  17.9 °C 35.2 °F /  1.8 °C 30.34in /  1027.3hPa ENE 0.9mph /  1.4km/h 3.0mph /  4.8km/h 34% 0.00in /  0mm 0.0 W/m2
17:45 63.3 °F /  17.4 °C 35.2 °F /  1.8 °C 30.34in /  1027.3hPa NNE 4.0mph /  6.4km/h 4.0mph /  6.4km/h 35% 0.00in /  0mm 0.0 W/m2
17:51 63.0 °F /  17.2 °C 34.9 °F /  1.6 °C 30.34in /  1027.3hPa Calm   1.0mph /  1.6km/h 35% 0.00in /  0mm 0.0 W/m2
17:57 62.4 °F /  16.9 °C 35.1 °F /  1.7 °C 30.35in /  1027.7hPa Calm   2.0mph /  3.2km/h 36% 0.00in /  0mm 0.0 W/m2
18:03 62.1 °F /  16.7 °C 35.4 °F /  1.9 °C 30.35in /  1027.7hPa Calm   1.0mph /  1.6km/h 37% 0.00in /  0mm 0.0 W/m2
18:09 61.5 °F /  16.4 °C 35.1 °F /  1.7 °C 30.35in /  1027.7hPa NE 0.9mph /  1.4km/h 3.0mph /  4.8km/h 37% 0.00in /  0mm 0.0 W/m2
18:15 61.2 °F /  16.2 °C 36.0 °F /  2.2 °C 30.35in /  1027.7hPa Calm   3.0mph /  4.8km/h 39% 0.00in /  0mm 0.0 W/m2
18:21 60.6 °F /  15.9 °C 35.6 °F /  2 °C 30.35in /  1027.7hPa Calm   2.0mph /  3.2km/h 39% 0.00in /  0mm 0.0 W/m2
18:27 60.1 °F /  15.6 °C 35.6 °F /  2 °C 30.35in /  1027.7hPa Calm   1.0mph /  1.6km/h 40% 0.00in /  0mm 0.0 W/m2
18:33 59.4 °F /  15.2 °C 35.6 °F /  2 °C 30.35in /  1027.7hPa Calm     41% 0.00in /  0mm 0.0 W/m2
18:45 57.9 °F /  14.4 °C 35.6 °F /  2 °C 30.35in /  1027.7hPa Calm   2.0mph /  3.2km/h 43% 0.00in /  0mm 0.0 W/m2
18:52 57.4 °F /  14.1 °C 35.6 °F /  2 °C 30.36in /  1028hPa Calm   1.0mph /  1.6km/h 44% 0.00in /  0mm 0.0 W/m2
18:58 56.8 °F /  13.8 °C 35.2 °F /  1.8 °C 30.36in /  1028hPa Calm   1.0mph /  1.6km/h 44% 0.00in /  0mm 0.0 W/m2
19:04 56.5 °F /  13.6 °C 35.4 °F /  1.9 °C 30.36in /  1028hPa Calm   2.0mph /  3.2km/h 45% 0.00in /  0mm 0.0 W/m2
19:10 56.3 °F /  13.5 °C 35.8 °F /  2.1 °C 30.37in /  1028.3hPa East 0.9mph /  1.4km/h 3.0mph /  4.8km/h 46% 0.00in /  0mm 0.0 W/m2
19:16 55.9 °F /  13.3 °C 35.4 °F /  1.9 °C 30.37in /  1028.3hPa Calm   2.0mph /  3.2km/h 46% 0.00in /  0mm 0.0 W/m2
19:22 55.9 °F /  13.3 °C 36.0 °F /  2.2 °C 30.37in /  1028.3hPa Calm   2.0mph /  3.2km/h 47% 0.00in /  0mm 0.0 W/m2
19:28 55.8 °F /  13.2 °C 35.8 °F /  2.1 °C 30.37in /  1028.3hPa Calm   5.0mph /  8km/h 47% 0.00in /  0mm 0.0 W/m2
19:34 55.8 °F /  13.2 °C 35.8 °F /  2.1 °C 30.37in /  1028.3hPa Calm   3.0mph /  4.8km/h 47% 0.00in /  0mm 0.0 W/m2
19:40 55.8 °F /  13.2 °C 35.8 °F /  2.1 °C 30.37in /  1028.3hPa Calm   2.0mph /  3.2km/h 47% 0.00in /  0mm 0.0 W/m2
19:46 55.6 °F /  13.1 °C 36.1 °F /  2.3 °C 30.38in /  1028.7hPa Calm   3.0mph /  4.8km/h 48% 0.00in /  0mm 0.0 W/m2
19:52 55.4 °F /  13 °C 36.0 °F /  2.2 °C 30.38in /  1028.7hPa ENE 0.9mph /  1.4km/h 2.0mph /  3.2km/h 48% 0.00in /  0mm 0.0 W/m2
19:58 55.2 °F /  12.9 °C 36.0 °F /  2.2 °C 30.38in /  1028.7hPa Calm   1.0mph /  1.6km/h 48% 0.00in /  0mm 0.0 W/m2
20:04 55.0 °F /  12.8 °C 35.8 °F /  2.1 °C 30.38in /  1028.7hPa Calm   2.0mph /  3.2km/h 48% 0.00in /  0mm 0.0 W/m2
20:13 54.9 °F /  12.7 °C 36.1 °F /  2.3 °C 30.38in /  1028.7hPa Calm   2.0mph /  3.2km/h 49% 0.00in /  0mm 0.0 W/m2
20:19 54.7 °F /  12.6 °C 36.0 °F /  2.2 °C 30.39in /  1029hPa Calm   1.0mph /  1.6km/h 49% 0.00in /  0mm 0.0 W/m2
20:25 54.5 °F /  12.5 °C 35.8 °F /  2.1 °C 30.39in /  1029hPa Calm   2.0mph /  3.2km/h 49% 0.00in /  0mm 0.0 W/m2
20:31 54.3 °F /  12.4 °C 35.6 °F /  2 °C 30.38in /  1028.7hPa Calm   2.0mph /  3.2km/h 49% 0.00in /  0mm 0.0 W/m2
20:37 54.1 °F /  12.3 °C 36.0 °F /  2.2 °C 30.38in /  1028.7hPa Calm   2.0mph /  3.2km/h 50% 0.00in /  0mm 0.0 W/m2
20:43 54.1 °F /  12.3 °C 36.0 °F /  2.2 °C 30.39in /  1029hPa Calm   1.0mph /  1.6km/h 50% 0.00in /  0mm 0.0 W/m2
20:49 54.0 °F /  12.2 °C 35.8 °F /  2.1 °C 30.39in /  1029hPa Calm   2.0mph /  3.2km/h 50% 0.00in /  0mm 0.0 W/m2
20:55 54.0 °F /  12.2 °C 35.8 °F /  2.1 °C 30.39in /  1029hPa Calm   1.0mph /  1.6km/h 50% 0.00in /  0mm 0.0 W/m2
21:01 53.8 °F /  12.1 °C 35.6 °F /  2 °C 30.39in /  1029hPa Calm   2.0mph /  3.2km/h 50% 0.00in /  0mm 0.0 W/m2
21:07 53.4 °F /  11.9 °C 35.2 °F /  1.8 °C 30.38in /  1028.7hPa Calm   2.0mph /  3.2km/h 50% 0.00in /  0mm 0.0 W/m2
21:14 53.4 °F /  11.9 °C 35.8 °F /  2.1 °C 30.39in /  1029hPa Calm   1.0mph /  1.6km/h 51% 0.00in /  0mm 0.0 W/m2
21:20 53.2 °F /  11.8 °C 35.6 °F /  2 °C 30.39in /  1029hPa Calm   1.0mph /  1.6km/h 51% 0.00in /  0mm 0.0 W/m2
21:26 53.1 °F /  11.7 °C 35.4 °F /  1.9 °C 30.39in /  1029hPa Calm   2.0mph /  3.2km/h 51% 0.00in /  0mm 0.0 W/m2
21:32 52.9 °F /  11.6 °C 35.8 °F /  2.1 °C 30.39in /  1029hPa Calm   1.0mph /  1.6km/h 52% 0.00in /  0mm 0.0 W/m2
21:40 52.5 °F /  11.4 °C 35.4 °F /  1.9 °C 30.39in /  1029hPa Calm   2.0mph /  3.2km/h 52% 0.00in /  0mm 0.0 W/m2
21:46 52.3 °F /  11.3 °C 35.2 °F /  1.8 °C 30.39in /  1029hPa Calm   1.0mph /  1.6km/h 52% 0.00in /  0mm 0.0 W/m2
21:52 52.2 °F /  11.2 °C 35.1 °F /  1.7 °C 30.39in /  1029hPa Calm   1.0mph /  1.6km/h 52% 0.00in /  0mm 0.0 W/m2
21:59 52.0 °F /  11.1 °C 35.4 °F /  1.9 °C 30.39in /  1029hPa Calm     53% 0.00in /  0mm 0.0 W/m2
22:05 51.6 °F /  10.9 °C 35.1 °F /  1.7 °C 30.39in /  1029hPa Calm     53% 0.00in /  0mm 0.0 W/m2
22:11 51.4 °F /  10.8 °C 35.4 °F /  1.9 °C 30.39in /  1029hPa Calm   2.0mph /  3.2km/h 54% 0.00in /  0mm 0.0 W/m2
22:17 51.3 °F /  10.7 °C 35.2 °F /  1.8 °C 30.39in /  1029hPa Calm   1.0mph /  1.6km/h 54% 0.00in /  0mm 0.0 W/m2
22:23 51.1 °F /  10.6 °C 35.1 °F /  1.7 °C 30.38in /  1028.7hPa Calm   1.0mph /  1.6km/h 54% 0.00in /  0mm 0.0 W/m2
22:29 51.1 °F /  10.6 °C 35.1 °F /  1.7 °C 30.38in /  1028.7hPa Calm   1.0mph /  1.6km/h 54% 0.00in /  0mm 0.0 W/m2
22:35 50.7 °F /  10.4 °C 34.7 °F /  1.5 °C 30.38in /  1028.7hPa Calm   1.0mph /  1.6km/h 54% 0.00in /  0mm 0.0 W/m2
22:41 50.5 °F /  10.3 °C 35.1 °F /  1.7 °C 30.38in /  1028.7hPa Calm   2.0mph /  3.2km/h 55% 0.00in /  0mm 0.0 W/m2
22:48 50.4 °F /  10.2 °C 34.9 °F /  1.6 °C 30.38in /  1028.7hPa Calm   1.0mph /  1.6km/h 55% 0.00in /  0mm 0.0 W/m2
22:54 50.2 °F /  10.1 °C 34.7 °F /  1.5 °C 30.38in /  1028.7hPa Calm   1.0mph /  1.6km/h 55% 0.00in /  0mm 0.0 W/m2
23:00 50.0 °F /  10 °C 34.5 °F /  1.4 °C 30.38in /  1028.7hPa Calm   2.0mph /  3.2km/h 55% 0.00in /  0mm 0.0 W/m2
23:06 49.8 °F /  9.9 °C 34.7 °F /  1.5 °C 30.38in /  1028.7hPa Calm     56% 0.00in /  0mm 0.0 W/m2
23:12 49.8 °F /  9.9 °C 34.7 °F /  1.5 °C 30.38in /  1028.7hPa Calm     56% 0.00in /  0mm 0.0 W/m2
23:18 49.6 °F /  9.8 °C 34.5 °F /  1.4 °C 30.38in /  1028.7hPa Calm     56% 0.00in /  0mm 0.0 W/m2
23:24 49.6 °F /  9.8 °C 35.1 °F /  1.7 °C 30.38in /  1028.7hPa Calm     57% 0.00in /  0mm 0.0 W/m2
23:30 49.5 °F /  9.7 °C 34.9 °F /  1.6 °C 30.38in /  1028.7hPa Calm   1.0mph /  1.6km/h 57% 0.00in /  0mm 0.0 W/m2
23:37 49.3 °F /  9.6 °C 34.7 °F /  1.5 °C 30.38in /  1028.7hPa Calm     57% 0.00in /  0mm 0.0 W/m2
23:43 48.9 °F /  9.4 °C 34.3 °F /  1.3 °C 30.38in /  1028.7hPa Calm     57% 0.00in /  0mm 0.0 W/m2
23:49 48.7 °F /  9.3 °C 34.7 °F /  1.5 °C 30.38in /  1028.7hPa Calm     58% 0.00in /  0mm 0.0 W/m2
23:55 48.6 °F /  9.2 °C 34.9 °F /  1.6 °C 30.38in /  1028.7hPa Calm     59% 0.00in /  0mm 0.0 W/m2
Olympia, Windhoek, Namibia
Compliments of Weather Underground - 3 mb